»·PEaware :: N28SQ KCMA-KPSP

N28SQ :: KCMA-KPSP

FLIGHT INFORMATION

Flight Status: Arrived
Operator: Privately registered:
United States
More flights under this callsign
Pilot: Gabor H. (24209)
Aircraft: PIPER PA-28 CHEROKEE ARCHER
(P28A)
More flights by this aircraft type
Origin: KCMA Camarillo
United States
Destination: KPSP Palm Springs Intl
United States
More flights between these airports :: More routes between these airports
Route:
File this flight plan on PilotEdge
Remarks:
Altitude:
(Current/Filed)
5,500ft
Speed:
(Current/Filed)
0kts
Departed: 09-Jan-21 09:05 PM
Arrived: 09-Jan-21 10:16 PM
Distance/Time
Traveled:
131nm/1:11
Distance/Time
To Go:
Arrived

Flight Plot

Page will automatically refresh every two minutes.

Flight plan parsing failed; only flown route is shown


Map Options




Map Legend


Flown Route
Filed Route
Departure Airport
Arrival Airport
Navaid (VOR, NDB)
Fix

Horizontal Profiles

Position Reports

Time Latitude Longitude Heading Altitude Ground
Speed
09-Jan-21 20:54 34.210798 -119.073915 271 80ft 0kts
09-Jan-21 20:55 34.210807 -119.074094 274 80ft 5kts
09-Jan-21 20:56 34.210911 -119.080536 271 80ft 23kts
09-Jan-21 20:57 34.210966 -119.088818 270 80ft 25kts
09-Jan-21 20:58 34.211030 -119.096342 270 80ft 21kts
09-Jan-21 20:59 34.212000 -119.102346 299 80ft 17kts
09-Jan-21 21:00 34.212951 -119.104460 78 80ft 0kts
09-Jan-21 21:01 34.212951 -119.104459 78 80ft 0kts
09-Jan-21 21:02 34.212951 -119.104459 78 80ft 0kts
09-Jan-21 21:03 34.213076 -119.104154 41 80ft 0kts
09-Jan-21 21:04 34.213812 -119.097812 88 172ft 68kts
09-Jan-21 21:05 34.212195 -119.075065 89 1082ft 71kts
09-Jan-21 21:06 34.210492 -119.050626 89 1940ft 77kts
09-Jan-21 21:07 34.209713 -119.024556 86 2774ft 79kts
09-Jan-21 21:08 34.208779 -118.997660 94 3573ft 81kts
09-Jan-21 21:09 34.203378 -118.970682 103 4330ft 84kts
09-Jan-21 21:10 34.195057 -118.943927 105 5052ft 86kts
09-Jan-21 21:11 34.184898 -118.914776 108 5528ft 117kts
09-Jan-21 21:12 34.175277 -118.874086 98 5517ft 128kts
09-Jan-21 21:13 34.170846 -118.830577 94 5532ft 130kts
09-Jan-21 21:14 34.166491 -118.786853 92 5523ft 131kts
09-Jan-21 21:15 34.163208 -118.743424 91 5537ft 131kts
09-Jan-21 21:16 34.162122 -118.699289 86 5533ft 129kts
09-Jan-21 21:17 34.161896 -118.655315 87 5530ft 129kts
09-Jan-21 21:18 34.158919 -118.611661 91 5538ft 130kts
09-Jan-21 21:19 34.155528 -118.568043 94 5535ft 131kts
09-Jan-21 21:20 34.152072 -118.524756 90 5535ft 130kts
09-Jan-21 21:21 34.148643 -118.481763 92 5542ft 127kts
09-Jan-21 21:22 34.145448 -118.438374 90 5533ft 130kts
09-Jan-21 21:23 34.142157 -118.395013 91 5534ft 130kts
09-Jan-21 21:24 34.135543 -118.352634 118 5534ft 130kts
09-Jan-21 21:25 34.125797 -118.311881 93 5536ft 128kts
09-Jan-21 21:26 34.120877 -118.269429 96 5527ft 126kts
09-Jan-21 21:27 34.116161 -118.227417 95 5527ft 126kts
09-Jan-21 21:28 34.111493 -118.185504 95 5527ft 125kts
09-Jan-21 21:29 34.106814 -118.143659 95 5527ft 125kts
09-Jan-21 21:30 34.102151 -118.101864 95 5524ft 126kts
09-Jan-21 21:31 34.097461 -118.059677 95 5510ft 126kts
09-Jan-21 21:32 34.092814 -118.017775 95 5511ft 125kts
09-Jan-21 21:33 34.088249 -117.975768 93 5511ft 125kts
09-Jan-21 21:34 34.083415 -117.934138 96 5510ft 121kts
09-Jan-21 21:35 34.077888 -117.894223 97 5509ft 120kts
09-Jan-21 21:36 34.072060 -117.854073 97 5509ft 123kts
09-Jan-21 21:37 34.066117 -117.813496 97 5517ft 122kts
09-Jan-21 21:38 34.059844 -117.772537 98 5506ft 125kts
09-Jan-21 21:39 34.053371 -117.731833 97 5509ft 123kts
09-Jan-21 21:40 34.046873 -117.690878 97 5508ft 122kts
09-Jan-21 21:41 34.040414 -117.650194 97 5518ft 124kts
09-Jan-21 21:42 34.033835 -117.609037 99 5514ft 123kts
09-Jan-21 21:43 34.027394 -117.568215 97 5509ft 125kts
09-Jan-21 21:44 34.020703 -117.527172 98 5516ft 123kts
09-Jan-21 21:45 34.014122 -117.485905 98 5510ft 126kts
09-Jan-21 21:46 34.007499 -117.444901 97 5509ft 122kts
09-Jan-21 21:47 34.001046 -117.404755 97 5509ft 121kts
09-Jan-21 21:48 33.994617 -117.364842 97 5509ft 121kts
09-Jan-21 21:49 33.988150 -117.325012 97 5510ft 121kts
09-Jan-21 21:50 33.981679 -117.285008 97 5510ft 121kts
09-Jan-21 21:51 33.975190 -117.245098 97 5510ft 121kts
09-Jan-21 21:52 33.968680 -117.205179 96 5510ft 122kts
09-Jan-21 21:53 33.962100 -117.164991 96 5510ft 121kts
09-Jan-21 21:54 33.955543 -117.124747 96 5509ft 122kts
09-Jan-21 21:55 33.949016 -117.084568 96 5518ft 122kts
09-Jan-21 21:56 33.942507 -117.043845 96 5528ft 124kts
09-Jan-21 21:57 33.936372 -117.002453 95 5552ft 126kts
09-Jan-21 21:58 33.930101 -116.960243 94 5552ft 125kts
09-Jan-21 21:59 33.924619 -116.918285 94 5499ft 130kts
09-Jan-21 22:00 33.920298 -116.874445 89 5145ft 131kts
09-Jan-21 22:01 33.917544 -116.831166 89 4865ft 127kts
09-Jan-21 22:02 33.914516 -116.788362 89 4575ft 128kts
09-Jan-21 22:03 33.911582 -116.745604 89 4285ft 127kts
09-Jan-21 22:04 33.908857 -116.702551 90 3936ft 131kts
09-Jan-21 22:05 33.907159 -116.657107 88 3311ft 140kts
09-Jan-21 22:06 33.899993 -116.612708 102 2632ft 131kts
09-Jan-21 22:07 33.892351 -116.571083 102 2030ft 128kts
09-Jan-21 22:08 33.887086 -116.529685 132 1507ft 120kts
09-Jan-21 22:10 33.864509 -116.502610 143 1501ft 116kts
09-Jan-21 22:11 33.839004 -116.477113 143 1499ft 120kts
09-Jan-21 22:12 33.813160 -116.451327 143 1500ft 120kts
09-Jan-21 22:13 33.794676 -116.467626 263 1206ft 77kts
09-Jan-21 22:14 33.807126 -116.487264 318 804ft 76kts
09-Jan-21 22:15 33.822760 -116.501461 318 494ft 65kts
09-Jan-21 22:16 33.825337 -116.502417 119 480ft 0kts
09-Jan-21 22:17 33.822096 -116.499266 143 480ft 31kts
09-Jan-21 22:18 33.821777 -116.496642 317 480ft 17kts
09-Jan-21 22:19 33.824313 -116.498446 53 480ft 2kts
09-Jan-21 22:20 33.824342 -116.498397 54 480ft 0kts
09-Jan-21 22:21 33.824342 -116.498397 54 480ft 0kts
09-Jan-21 22:22 33.824342 -116.498397 54 480ft 0kts
09-Jan-21 22:23 33.824342 -116.498397 54 480ft 0kts
09-Jan-21 22:24 33.824342 -116.498397 54 480ft 0kts
09-Jan-21 22:24 33.824342 -116.498397 54 480ft 0kts
09-Jan-21 22:26 33.824342 -116.498397 54 480ft 0kts
09-Jan-21 22:27 33.824342 -116.498397 54 480ft 0kts
09-Jan-21 22:27 33.824342 -116.498397 54 480ft 0kts
09-Jan-21 22:28 33.824342 -116.498397 54 480ft 0kts

Navigation Log

Ident Type
Flight plan parsing failed, navigation log unavailable